createdAt,value
2016-10-11T00:01:34.702Z,0
2016-10-11T00:11:49.707Z,0
2016-10-11T00:22:03.810Z,0
2016-10-11T00:32:19.077Z,0
2016-10-11T00:42:32.833Z,0
2016-10-11T00:52:47.216Z,0
2016-10-11T01:03:01.629Z,0
2016-10-11T01:13:16.355Z,0
2016-10-11T01:23:31.036Z,0
2016-10-11T01:33:45.586Z,0
2016-10-11T01:44:00.312Z,0
2016-10-11T01:54:15.478Z,0
2016-10-11T02:04:29.854Z,0
2016-10-11T02:14:43.669Z,0
2016-10-11T02:24:57.094Z,0
2016-10-11T02:35:11.297Z,0
2016-10-11T02:45:24.655Z,0
2016-10-11T02:55:38.527Z,0
2016-10-11T03:05:51.920Z,0
2016-10-11T03:16:05.440Z,0
2016-10-11T03:26:20.344Z,0
2016-10-11T03:36:35.641Z,0
2016-10-11T03:46:50.277Z,0
2016-10-11T03:57:05.209Z,0
2016-10-11T04:07:20.376Z,0
2016-10-11T04:17:35.572Z,0
2016-10-11T04:27:49.158Z,0
2016-10-11T04:38:04.018Z,0
2016-10-11T04:48:18.197Z,0
2016-10-11T04:58:32.459Z,0
2016-10-11T05:08:47.219Z,0
2016-10-11T05:19:00.748Z,0
2016-10-11T05:29:15.342Z,16
2016-10-11T05:39:29.829Z,76
2016-10-11T05:49:43.448Z,176
2016-10-11T05:59:59.072Z,384
2016-10-11T06:10:12.227Z,684
2016-10-11T06:20:25.594Z,1012
2016-10-11T06:30:39.509Z,2012
2016-10-11T06:40:53.581Z,3140
2016-10-11T06:51:07.746Z,4120
2016-10-11T07:01:22.578Z,5316
2016-10-11T07:11:36.614Z,6424
2016-10-11T07:21:51.209Z,7188
2016-10-11T07:32:05.791Z,5272
2016-10-11T07:42:20.259Z,5760
2016-10-11T07:52:35.586Z,8056
2016-10-11T08:02:49.555Z,12288
2016-10-11T08:13:03.414Z,13216
2016-10-11T08:23:18.191Z,17728
2016-10-11T08:33:31.924Z,16320
2016-10-11T08:43:47.154Z,15916
2016-10-11T08:54:00.822Z,15520
2016-10-11T09:04:15.739Z,17632
2016-10-11T09:14:29.269Z,16384
2016-10-11T09:24:43.387Z,17728
2016-10-11T09:34:57.111Z,11700
2016-10-11T09:45:11.836Z,10508
2016-10-11T09:55:25.308Z,15868
2016-10-11T10:05:39.332Z,11120
2016-10-11T10:15:53.150Z,10984
2016-10-11T10:26:06.898Z,16284
2016-10-11T10:36:21.872Z,15772
2016-10-11T10:46:36.044Z,14196
2016-10-11T10:56:49.514Z,21728
2016-10-11T11:07:03.401Z,14140
2016-10-11T11:17:17.206Z,9000
2016-10-11T11:27:31.650Z,16468
2016-10-11T11:37:45.792Z,15072
2016-10-11T11:48:00.808Z,13704
2016-10-11T11:58:14.354Z,18720
2016-10-11T12:08:28.448Z,15644
2016-10-11T12:18:43.448Z,12360
2016-10-11T12:28:57.627Z,9980
2016-10-11T12:39:11.154Z,12112
2016-10-11T12:49:25.273Z,12456
2016-10-11T12:59:39.790Z,12784
2016-10-11T13:09:53.214Z,6276
2016-10-11T13:20:07.564Z,8432
2016-10-11T13:30:21.203Z,7440
2016-10-11T13:40:35.538Z,14916
2016-10-11T13:50:49.535Z,15552
2016-10-11T14:01:03.973Z,15616
2016-10-11T14:11:17.655Z,40736
2016-10-11T14:21:31.563Z,28576
2016-10-11T14:31:46.598Z,16764
2016-10-11T14:42:01.359Z,8296
2016-10-11T14:52:15.144Z,4812
2016-10-11T15:02:29.589Z,6580
2016-10-11T15:12:44.042Z,7008
2016-10-11T15:22:57.539Z,3932
2016-10-11T15:33:11.301Z,3236
2016-10-11T15:43:26.381Z,1524
2016-10-11T15:53:40.402Z,1192
2016-10-11T16:03:54.344Z,1036
2016-10-11T16:14:09.102Z,804
2016-10-11T16:24:23.159Z,668
2016-10-11T16:34:36.594Z,164
2016-10-11T16:44:51.160Z,72
2016-10-11T16:55:05.796Z,32
2016-10-11T17:05:20.778Z,0
2016-10-11T17:15:35.274Z,0
2016-10-11T17:25:49.231Z,0
2016-10-11T17:36:03.626Z,0
2016-10-11T17:46:18.735Z,0
2016-10-11T17:56:32.412Z,0
2016-10-11T18:06:46.406Z,0
2016-10-11T18:17:01.130Z,0
2016-10-11T18:27:16.726Z,0
2016-10-11T18:37:29.679Z,0
2016-10-11T18:47:44.750Z,0
2016-10-11T18:57:58.556Z,0
2016-10-11T19:08:13.640Z,0
2016-10-11T19:18:28.104Z,0
2016-10-11T19:28:42.143Z,0
2016-10-11T19:38:57.124Z,0
2016-10-11T19:49:11.558Z,0
2016-10-11T19:59:26.822Z,0
2016-10-11T20:09:41.546Z,0
2016-10-11T20:19:56.185Z,0
2016-10-11T20:30:11.480Z,0
2016-10-11T20:40:25.493Z,0
2016-10-11T20:50:40.137Z,0
2016-10-11T21:00:54.160Z,0
2016-10-11T21:11:09.359Z,0
2016-10-11T21:21:24.018Z,0
2016-10-11T21:31:37.421Z,0
2016-10-11T21:41:52.512Z,0
2016-10-11T21:52:07.811Z,0
2016-10-11T22:02:21.895Z,0
2016-10-11T22:12:35.364Z,0
2016-10-11T22:22:49.426Z,0
2016-10-11T22:33:03.552Z,0
2016-10-11T22:43:18.541Z,0
2016-10-11T22:53:33.614Z,0
2016-10-11T23:03:48.072Z,0
2016-10-11T23:14:02.758Z,0
2016-10-11T23:24:17.726Z,0
2016-10-11T23:34:32.763Z,0
2016-10-11T23:44:47.095Z,0
2016-10-11T23:55:02.315Z,0
